Time;durP1;ratioP1;P1;durP2;ratioP2;P2;SDS_P1;SDS_P2;PMS_P1;PMS_P2;Temp;Humidity;BMP_temperature;BMP_pressure;BME280_temperature;BME280_humidity;BME280_pressure;Samples;Min_cycle;Max_cycle;Signal;HPM_P1;HPM_P2
2022/10/07 00:00:23;;;;;;;7.33;3.80;;;9.30;99.90;;;;;;4180564;28;20212;-73
2022/10/07 00:02:25;;;;;;;5.20;3.50;;;9.40;99.90;;;;;;4183757;28;20688;-73
2022/10/07 00:04:27;;;;;;;5.00;3.30;;;9.30;99.90;;;;;;4183840;28;20203;-73
2022/10/07 00:06:29;;;;;;;7.07;3.57;;;9.30;99.90;;;;;;4177811;28;20712;-73
2022/10/07 00:08:33;;;;;;;7.90;3.67;;;9.30;99.90;;;;;;4181878;28;20217;-72
2022/10/07 00:10:38;;;;;;;4.87;3.00;;;9.30;99.90;;;;;;4179972;28;20241;-73
2022/10/07 00:12:40;;;;;;;6.93;3.47;;;9.30;99.90;;;;;;4183386;28;20556;-73
2022/10/07 00:14:42;;;;;;;8.07;3.80;;;9.20;99.90;;;;;;4188497;28;20483;-73
2022/10/07 00:16:44;;;;;;;4.90;3.30;;;9.20;99.90;;;;;;4199933;28;20237;-73
2022/10/07 00:18:47;;;;;;;5.67;3.40;;;9.20;99.90;;;;;;4197656;28;20555;-72
2022/10/07 00:20:48;;;;;;;5.27;3.30;;;9.20;99.90;;;;;;4197343;28;20217;-73
2022/10/07 00:22:52;;;;;;;6.67;3.50;;;9.10;99.90;;;;;;4201506;28;20452;-73
2022/10/07 00:24:55;;;;;;;4.57;3.10;;;9.20;99.90;;;;;;4190334;28;20531;-73
2022/10/07 00:26:57;;;;;;;5.90;3.10;;;9.10;99.90;;;;;;4179851;28;20217;-73
2022/10/07 00:28:59;;;;;;;6.90;3.30;;;9.10;99.90;;;;;;4181034;28;20504;-73
2022/10/07 00:31:03;;;;;;;5.67;3.27;;;9.10;99.90;;;;;;4181873;28;20459;-73
2022/10/07 00:33:05;;;;;;;6.80;3.47;;;9.10;99.90;;;;;;4184932;28;20209;-73
2022/10/07 00:35:07;;;;;;;8.27;3.60;;;9.10;99.90;;;;;;4182152;28;20473;-73
2022/10/07 00:37:09;;;;;;;5.53;3.30;;;9.10;99.90;;;;;;4184967;28;20965;-73
2022/10/07 00:39:13;;;;;;;6.43;3.60;;;9.00;99.90;;;;;;4181161;28;20229;-72
2022/10/07 00:41:18;;;;;;;5.73;3.50;;;9.00;99.90;;;;;;4182662;28;20581;-72
2022/10/07 00:43:25;;;;;;;6.07;3.43;;;9.00;99.90;;;;;;4182750;28;20486;-73
2022/10/07 00:45:28;;;;;;;5.00;3.07;;;9.00;99.90;;;;;;4181256;28;20449;-73
2022/10/07 00:47:34;;;;;;;6.30;3.43;;;9.00;99.90;;;;;;4182401;28;20452;-73
2022/10/07 00:49:41;;;;;;;4.80;3.07;;;8.90;99.90;;;;;;4183692;28;20504;-73
2022/10/07 00:51:43;;;;;;;4.67;3.20;;;8.90;99.90;;;;;;4179137;28;20529;-73
2022/10/07 00:53:48;;;;;;;6.23;3.60;;;8.90;99.90;;;;;;4179991;28;21402;-73
2022/10/07 00:55:50;;;;;;;6.33;3.40;;;8.90;99.90;;;;;;4185206;28;20460;-73
2022/10/07 00:57:56;;;;;;;5.30;3.20;;;8.90;99.90;;;;;;4177276;28;20512;-72
2022/10/07 00:59:59;;;;;;;6.23;3.60;;;8.90;99.90;;;;;;4193232;28;20236;-72
2022/10/07 01:02:01;;;;;;;6.23;3.30;;;8.80;99.90;;;;;;4183977;28;20465;-73
2022/10/07 01:04:03;;;;;;;5.77;3.40;;;8.80;99.90;;;;;;4185049;28;20538;-72
2022/10/07 01:06:05;;;;;;;5.53;3.37;;;8.80;99.90;;;;;;4177024;28;20523;-72
2022/10/07 01:08:07;;;;;;;5.33;3.23;;;8.80;99.90;;;;;;4183111;28;20460;-72
2022/10/07 01:10:11;;;;;;;6.57;3.40;;;8.80;99.90;;;;;;4182496;28;20540;-72
2022/10/07 01:12:19;;;;;;;4.83;3.03;;;8.70;99.90;;;;;;4184186;28;20462;-73
2022/10/07 01:14:34;;;;;;;4.73;3.30;;;8.80;99.90;;;;;;4185434;28;20474;-73
2022/10/07 01:16:46;;;;;;;5.63;3.50;;;8.70;99.90;;;;;;4182169;28;20463;-73
2022/10/07 01:18:53;;;;;;;7.97;3.57;;;8.70;99.90;;;;;;4180421;28;20886;-72
2022/10/07 01:21:03;;;;;;;6.57;3.70;;;8.60;99.90;;;;;;4183367;28;20464;-72
2022/10/07 01:23:28;;;;;;;4.87;3.57;;;8.60;99.90;;;;;;4186580;28;20452;-72
2022/10/07 01:25:42;;;;;;;7.07;3.93;;;8.60;99.90;;;;;;4185238;28;20488;-72
2022/10/07 01:27:50;;;;;;;5.07;2.90;;;8.60;99.90;;;;;;4181933;28;20465;-72
2022/10/07 01:29:56;;;;;;;5.07;3.17;;;8.60;99.90;;;;;;4183641;28;20559;-72
2022/10/07 01:32:05;;;;;;;6.27;3.40;;;8.60;99.90;;;;;;4186867;28;20459;-73
2022/10/07 01:34:09;;;;;;;5.10;3.37;;;8.50;99.90;;;;;;4184734;28;20516;-71
2022/10/07 01:36:16;;;;;;;7.57;3.63;;;8.50;99.90;;;;;;4184752;28;20459;-72
2022/10/07 01:38:19;;;;;;;6.83;3.90;;;8.50;99.90;;;;;;4184089;28;20456;-73
2022/10/07 01:40:24;;;;;;;5.83;3.27;;;8.50;99.90;;;;;;4181811;28;20465;-72
2022/10/07 01:42:26;;;;;;;6.27;3.70;;;8.50;99.90;;;;;;4184845;28;20535;-72
2022/10/07 01:44:30;;;;;;;5.37;3.33;;;8.50;99.90;;;;;;4181726;28;20551;-73
2022/10/07 01:46:36;;;;;;;7.87;3.50;;;8.40;99.90;;;;;;4184048;28;20488;-73
2022/10/07 01:48:38;;;;;;;4.43;2.90;;;8.40;99.90;;;;;;4186203;28;20871;-73
2022/10/07 01:50:40;;;;;;;6.97;3.83;;;8.40;99.90;;;;;;4183143;28;20499;-72
2022/10/07 01:52:59;;;;;;;4.73;3.37;;;8.40;99.90;;;;;;4183589;28;20485;-72
2022/10/07 01:55:18;;;;;;;6.00;4.10;;;8.40;99.90;;;;;;4176910;28;20451;-73
2022/10/07 01:57:31;;;;;;;7.40;4.63;;;8.40;99.90;;;;;;4184481;28;20483;-73
2022/10/07 01:59:55;;;;;;;6.47;3.80;;;8.30;99.90;;;;;;4176766;28;20471;-72
2022/10/07 02:02:05;;;;;;;6.40;4.00;;;8.40;99.90;;;;;;4179796;28;20460;-72
2022/10/07 02:04:24;;;;;;;6.17;3.90;;;8.30;99.90;;;;;;4183583;28;20451;-72
2022/10/07 02:06:35;;;;;;;7.10;4.00;;;8.30;99.90;;;;;;4180260;28;20480;-72
2022/10/07 02:08:42;;;;;;;6.57;3.83;;;8.30;99.90;;;;;;4180266;28;20483;-72
2022/10/07 02:10:53;;;;;;;5.73;3.70;;;8.30;99.90;;;;;;4181873;28;21009;-73
2022/10/07 02:13:02;;;;;;;6.27;3.50;;;8.30;99.90;;;;;;4180895;28;20450;-73
2022/10/07 02:15:11;;;;;;;7.17;3.80;;;8.30;99.90;;;;;;4184090;28;20562;-73
2022/10/07 02:17:17;;;;;;;7.17;4.30;;;8.30;99.90;;;;;;4185219;28;20478;-72
2022/10/07 02:19:22;;;;;;;8.00;3.93;;;8.20;99.90;;;;;;4180293;28;20480;-72
2022/10/07 02:21:27;;;;;;;6.03;3.83;;;8.20;99.90;;;;;;4184604;28;20931;-73
2022/10/07 02:23:32;;;;;;;7.73;4.37;;;8.20;99.90;;;;;;4184776;28;20453;-73
2022/10/07 02:25:39;;;;;;;9.37;5.17;;;8.20;99.90;;;;;;4186341;28;20456;-73
2022/10/07 02:27:42;;;;;;;6.63;4.30;;;8.20;99.90;;;;;;4186949;28;21082;-72
2022/10/07 02:29:46;;;;;;;6.13;3.83;;;8.20;99.90;;;;;;4194824;28;20487;-72
2022/10/07 02:31:52;;;;;;;5.77;3.83;;;8.20;99.90;;;;;;4187257;28;20457;-72
2022/10/07 02:33:56;;;;;;;9.90;4.40;;;8.20;99.90;;;;;;4186102;28;20570;-72
2022/10/07 02:36:01;;;;;;;7.53;4.57;;;8.10;99.90;;;;;;4184547;28;20463;-72
2022/10/07 02:38:09;;;;;;;7.97;4.40;;;8.10;99.90;;;;;;4185927;28;20459;-73
2022/10/07 02:40:11;;;;;;;7.00;4.33;;;8.10;99.90;;;;;;4187330;28;20510;-73
2022/10/07 02:42:22;;;;;;;9.40;4.37;;;8.10;99.90;;;;;;4183986;28;20468;-72
2022/10/07 02:44:31;;;;;;;6.43;4.40;;;8.10;99.90;;;;;;4183004;28;20469;-73
2022/10/07 02:46:38;;;;;;;6.73;3.73;;;8.10;99.90;;;;;;4185162;28;20480;-73
2022/10/07 02:48:47;;;;;;;7.87;4.90;;;8.10;99.90;;;;;;4185765;28;20479;-72
2022/10/07 02:50:55;;;;;;;7.87;4.37;;;8.00;99.90;;;;;;4183508;28;20455;-73
2022/10/07 02:52:58;;;;;;;11.23;5.40;;;8.00;99.90;;;;;;4187745;28;21042;-72
2022/10/07 02:55:03;;;;;;;9.73;4.80;;;8.00;99.90;;;;;;4184586;28;20553;-72
2022/10/07 02:57:06;;;;;;;9.50;4.80;;;8.00;99.90;;;;;;4186281;28;20476;-72
2022/10/07 02:59:10;;;;;;;8.27;4.70;;;8.00;99.90;;;;;;4184875;28;20495;-72
2022/10/07 03:01:17;;;;;;;8.37;4.57;;;8.00;99.90;;;;;;4184507;28;20471;-73
2022/10/07 03:03:19;;;;;;;8.10;4.77;;;8.00;99.90;;;;;;4185997;28;20467;-73
2022/10/07 03:05:24;;;;;;;7.03;4.43;;;7.90;99.90;;;;;;4189022;28;20464;-73
2022/10/07 03:07:27;;;;;;;7.17;4.03;;;7.90;99.90;;;;;;4191361;28;20488;-73
2022/10/07 03:09:30;;;;;;;6.27;4.37;;;7.90;99.90;;;;;;4188305;28;20510;-73
2022/10/07 03:11:32;;;;;;;7.97;4.23;;;7.90;99.90;;;;;;4190225;28;20559;-73
2022/10/07 03:13:35;;;;;;;8.23;4.20;;;7.90;99.90;;;;;;4188090;28;20454;-73
2022/10/07 03:15:37;;;;;;;8.00;4.27;;;7.90;99.90;;;;;;4185344;28;20451;-73
2022/10/07 03:17:40;;;;;;;7.83;4.80;;;7.90;99.90;;;;;;4182152;28;20496;-74
2022/10/07 03:19:42;;;;;;;8.07;4.43;;;7.90;99.90;;;;;;4185389;28;20479;-73
2022/10/07 03:21:46;;;;;;;8.67;4.10;;;7.80;99.90;;;;;;4183576;28;20459;-73
2022/10/07 03:23:51;;;;;;;7.20;4.17;;;7.80;99.90;;;;;;4186770;28;20497;-73
2022/10/07 03:25:54;;;;;;;7.40;4.03;;;7.80;99.90;;;;;;4178555;28;20457;-73
2022/10/07 03:27:56;;;;;;;6.83;4.33;;;7.80;99.90;;;;;;4183103;28;20492;-73
2022/10/07 03:29:58;;;;;;;6.57;4.17;;;7.80;99.90;;;;;;4184217;28;20491;-73
2022/10/07 03:32:00;;;;;;;6.97;4.17;;;7.80;99.90;;;;;;4184553;28;20459;-73
2022/10/07 03:34:02;;;;;;;7.20;3.77;;;7.80;99.90;;;;;;4183953;28;20488;-73
2022/10/07 03:36:05;;;;;;;9.93;4.20;;;7.80;99.90;;;;;;4185212;28;20973;-73
2022/10/07 03:38:09;;;;;;;7.40;4.13;;;7.80;99.90;;;;;;4189304;28;20448;-73
2022/10/07 03:40:11;;;;;;;6.17;3.80;;;7.70;99.90;;;;;;4183616;28;20882;-73
2022/10/07 03:42:13;;;;;;;8.50;4.63;;;7.70;99.90;;;;;;4186378;28;20487;-73
2022/10/07 03:44:15;;;;;;;6.93;3.90;;;7.70;99.90;;;;;;4187466;28;21032;-73
2022/10/07 03:46:18;;;;;;;7.87;3.70;;;7.70;99.90;;;;;;4185009;28;20463;-73
2022/10/07 03:48:20;;;;;;;9.50;4.40;;;7.70;99.90;;;;;;4183205;28;20444;-73
2022/10/07 03:50:22;;;;;;;8.67;4.80;;;7.70;99.90;;;;;;4184698;28;20792;-74
2022/10/07 03:52:24;;;;;;;7.30;4.10;;;7.60;99.90;;;;;;4183724;28;20502;-73
2022/10/07 03:54:27;;;;;;;7.07;4.37;;;7.60;99.90;;;;;;4184445;28;21101;-73
2022/10/07 03:56:29;;;;;;;6.07;3.80;;;7.60;99.90;;;;;;4182415;28;20542;-73
2022/10/07 03:58:31;;;;;;;12.13;4.83;;;7.60;99.90;;;;;;4183039;28;21359;-73
2022/10/07 04:00:33;;;;;;;7.03;4.03;;;7.60;99.90;;;;;;4184619;28;20563;-73
2022/10/07 04:02:34;;;;;;;8.07;4.50;;;7.60;99.90;;;;;;4187725;28;20486;-73
2022/10/07 04:04:37;;;;;;;6.07;3.97;;;7.60;99.90;;;;;;4182168;28;20554;-73
2022/10/07 04:06:39;;;;;;;6.80;4.20;;;7.60;99.90;;;;;;4180486;28;21099;-73
2022/10/07 04:08:43;;;;;;;5.83;3.80;;;7.50;99.90;;;;;;4184851;28;20491;-73
2022/10/07 04:10:46;;;;;;;6.10;3.83;;;7.50;99.90;;;;;;4185546;28;20478;-73
2022/10/07 04:12:50;;;;;;;7.43;4.50;;;7.50;99.90;;;;;;4183433;28;20542;-73
2022/10/07 04:14:52;;;;;;;7.70;4.37;;;7.50;99.90;;;;;;4184106;28;20463;-73
2022/10/07 04:16:56;;;;;;;7.43;4.40;;;7.50;99.90;;;;;;4183348;28;20477;-73
2022/10/07 04:18:58;;;;;;;7.60;4.77;;;7.50;99.90;;;;;;4183016;28;20475;-72
2022/10/07 04:20:59;;;;;;;7.67;4.80;;;7.50;99.90;;;;;;4185390;28;20556;-71
2022/10/07 04:23:01;;;;;;;6.90;3.97;;;7.40;99.90;;;;;;4185303;28;20456;-72
2022/10/07 04:27:24;;;;;;;7.57;4.53;;;7.40;99.90;;;;;;4183696;28;20578;-73
2022/10/07 04:29:26;;;;;;;7.00;4.53;;;7.40;99.90;;;;;;4184932;28;20487;-73
2022/10/07 04:31:28;;;;;;;7.23;4.43;;;7.40;99.90;;;;;;4182167;28;20859;-73
2022/10/07 04:33:29;;;;;;;9.27;4.73;;;7.40;99.90;;;;;;4183832;28;20459;-72
2022/10/07 04:35:31;;;;;;;6.17;4.20;;;7.40;99.90;;;;;;4181571;28;20461;-73
2022/10/07 04:37:33;;;;;;;7.77;4.37;;;7.40;99.90;;;;;;4182546;28;20467;-72
2022/10/07 04:39:35;;;;;;;7.03;3.83;;;7.30;99.90;;;;;;4184631;28;20967;-72
2022/10/07 04:41:37;;;;;;;7.37;4.40;;;7.30;99.90;;;;;;4185473;28;20461;-72
2022/10/07 04:43:41;;;;;;;7.07;3.80;;;7.30;99.90;;;;;;4187033;28;20527;-72
2022/10/07 04:45:42;;;;;;;7.23;4.20;;;7.30;99.90;;;;;;4185036;28;20447;-72
2022/10/07 04:47:45;;;;;;;6.53;4.20;;;7.30;99.90;;;;;;4189165;28;20594;-72
2022/10/07 04:49:47;;;;;;;6.07;3.60;;;7.30;99.90;;;;;;4184254;28;20478;-72
2022/10/07 04:51:49;;;;;;;7.27;4.13;;;7.30;99.90;;;;;;4188553;28;20478;-73
2022/10/07 04:53:52;;;;;;;7.50;4.23;;;7.30;99.90;;;;;;4185245;28;21533;-72
2022/10/07 04:55:54;;;;;;;7.40;4.37;;;7.20;99.90;;;;;;4177012;28;20458;-72
2022/10/07 04:57:55;;;;;;;7.93;4.43;;;7.20;99.90;;;;;;4186221;28;20443;-72
2022/10/07 04:59:59;;;;;;;7.57;4.57;;;7.20;99.90;;;;;;4178505;28;20475;-72
2022/10/07 05:02:01;;;;;;;8.87;4.50;;;7.20;99.90;;;;;;4184335;28;20446;-73
2022/10/07 05:04:02;;;;;;;6.90;3.83;;;7.20;99.90;;;;;;4183135;28;20537;-71
2022/10/07 05:06:05;;;;;;;7.23;4.33;;;7.20;99.90;;;;;;4183256;28;20463;-73
2022/10/07 05:08:07;;;;;;;9.60;4.60;;;7.20;99.90;;;;;;4182357;28;21009;-73
2022/10/07 05:10:10;;;;;;;6.80;4.03;;;7.20;99.90;;;;;;4177210;28;20533;-75
2022/10/07 05:12:11;;;;;;;6.67;3.97;;;7.30;99.90;;;;;;4183146;28;21062;-75
2022/10/07 05:14:13;;;;;;;8.13;4.43;;;7.20;99.90;;;;;;4181577;28;20547;-73
2022/10/07 05:16:16;;;;;;;5.73;3.70;;;7.20;99.90;;;;;;4179744;28;20450;-73
2022/10/07 05:18:19;;;;;;;7.57;4.17;;;7.20;99.90;;;;;;4183383;28;20550;-73
2022/10/07 05:20:21;;;;;;;7.27;4.13;;;7.10;99.90;;;;;;4184654;28;20543;-73
2022/10/07 05:22:23;;;;;;;7.57;3.77;;;7.10;99.90;;;;;;4181897;28;20466;-74
2022/10/07 05:24:25;;;;;;;6.93;4.23;;;7.10;99.90;;;;;;4181304;28;20489;-75
2022/10/07 05:26:26;;;;;;;9.37;4.50;;;7.10;99.90;;;;;;4183572;28;20492;-73
2022/10/07 05:28:28;;;;;;;6.60;3.90;;;7.10;99.90;;;;;;4182261;28;20557;-75
2022/10/07 05:30:30;;;;;;;7.60;4.47;;;7.10;99.90;;;;;;4183774;28;20586;-74
2022/10/07 05:32:33;;;;;;;7.23;4.67;;;7.10;99.90;;;;;;4184406;28;20493;-74
2022/10/07 05:34:35;;;;;;;6.10;3.70;;;7.10;99.90;;;;;;4183865;28;20470;-75
2022/10/07 05:36:37;;;;;;;7.03;4.30;;;7.10;99.90;;;;;;4185207;28;20479;-73
2022/10/07 05:38:39;;;;;;;7.43;3.97;;;7.10;99.90;;;;;;4177906;28;20508;-74
2022/10/07 05:40:41;;;;;;;6.83;4.07;;;7.10;99.90;;;;;;4184010;28;20445;-75
2022/10/07 05:42:43;;;;;;;8.60;4.27;;;7.10;99.90;;;;;;4176887;28;20471;-74
2022/10/07 05:44:45;;;;;;;8.30;4.67;;;7.10;99.90;;;;;;4179861;28;20972;-73
2022/10/07 05:46:47;;;;;;;10.27;5.20;;;7.00;99.90;;;;;;4189795;28;20465;-74
2022/10/07 05:48:51;;;;;;;7.90;4.90;;;7.00;99.90;;;;;;4180003;28;20502;-74
2022/10/07 05:50:53;;;;;;;9.43;4.50;;;7.00;99.90;;;;;;4185507;28;20466;-74
2022/10/07 05:52:56;;;;;;;8.80;4.77;;;7.00;99.90;;;;;;4197083;28;20530;-73
2022/10/07 05:54:58;;;;;;;7.10;3.83;;;7.00;99.90;;;;;;4204290;28;20511;-72
2022/10/07 05:57:00;;;;;;;7.60;4.03;;;7.00;99.90;;;;;;4203404;28;20456;-73
2022/10/07 05:59:02;;;;;;;6.63;3.67;;;7.00;99.90;;;;;;4205342;28;20464;-73
2022/10/07 06:01:05;;;;;;;6.80;4.07;;;7.00;99.90;;;;;;4201167;28;20436;-74
2022/10/07 06:03:07;;;;;;;7.20;3.97;;;7.10;99.90;;;;;;4195256;28;20494;-74
2022/10/07 06:05:10;;;;;;;6.20;3.83;;;7.00;99.90;;;;;;4189086;28;20984;-74
2022/10/07 06:07:13;;;;;;;6.87;4.20;;;7.00;99.90;;;;;;4180536;28;20471;-75
2022/10/07 06:13:55;;;;;;;7.00;3.77;;;7.10;99.90;;;;;;4187607;28;20464;-75
2022/10/07 06:16:00;;;;;;;6.70;4.07;;;7.10;99.90;;;;;;4184849;28;20551;-73
2022/10/07 06:18:03;;;;;;;8.07;4.67;;;7.10;99.90;;;;;;4185026;28;20914;-74
2022/10/07 06:20:05;;;;;;;9.60;5.03;;;7.10;99.90;;;;;;4188540;28;20921;-73
2022/10/07 06:22:09;;;;;;;9.90;5.63;;;7.10;99.90;;;;;;4186818;28;20459;-73
2022/10/07 06:24:12;;;;;;;9.57;5.20;;;7.00;99.90;;;;;;4178956;28;20455;-73
2022/10/07 06:26:13;;;;;;;13.20;5.30;;;7.10;99.90;;;;;;4183325;28;20457;-73
2022/10/07 06:28:16;;;;;;;10.20;5.47;;;7.10;99.90;;;;;;4183135;28;21228;-76
2022/10/07 06:30:18;;;;;;;8.57;5.47;;;7.10;99.90;;;;;;4182901;28;20936;-74
2022/10/07 06:32:19;;;;;;;11.73;4.20;;;7.10;99.90;;;;;;4186170;28;20446;-75
2022/10/07 06:34:21;;;;;;;6.70;4.03;;;7.10;99.90;;;;;;4186160;28;20506;-75
2022/10/07 06:36:23;;;;;;;8.70;4.30;;;7.10;99.90;;;;;;4181670;28;20544;-74
2022/10/07 06:38:26;;;;;;;7.63;4.67;;;7.10;99.90;;;;;;4187791;28;20450;-74
2022/10/07 06:40:28;;;;;;;8.43;4.07;;;7.10;99.90;;;;;;4182365;28;20584;-73
2022/10/07 06:42:32;;;;;;;8.43;4.30;;;7.10;99.90;;;;;;4185293;28;20495;-74
2022/10/07 06:44:34;;;;;;;9.13;4.70;;;7.10;99.90;;;;;;4183644;28;20509;-74
2022/10/07 06:46:36;;;;;;;8.67;4.90;;;7.10;99.90;;;;;;4185260;28;20489;-73
2022/10/07 06:48:41;;;;;;;6.67;4.13;;;7.10;99.90;;;;;;4183198;28;21138;-74
2022/10/07 06:50:50;;;;;;;10.47;5.53;;;7.20;99.90;;;;;;4184873;28;20503;-75
2022/10/07 06:52:52;;;;;;;9.40;5.10;;;7.20;99.90;;;;;;4190314;28;20454;-74
2022/10/07 06:54:57;;;;;;;12.60;5.30;;;7.20;99.90;;;;;;4183504;28;20522;-75
2022/10/07 06:56:59;;;;;;;12.10;5.77;;;7.20;99.90;;;;;;4185852;28;20750;-76
2022/10/07 06:59:02;;;;;;;9.03;5.07;;;7.20;99.90;;;;;;4182384;28;20502;-73
2022/10/07 07:01:04;;;;;;;12.67;5.60;;;7.20;99.90;;;;;;4184148;28;20455;-73
2022/10/07 07:03:06;;;;;;;9.57;5.47;;;7.30;99.90;;;;;;4185704;28;21125;-73
2022/10/07 07:05:12;;;;;;;11.17;4.90;;;7.30;99.90;;;;;;4184287;28;20945;-72
2022/10/07 07:07:14;;;;;;;12.00;5.13;;;7.30;99.90;;;;;;4177914;28;20542;-72
2022/10/07 07:09:16;;;;;;;10.20;5.20;;;7.30;99.90;;;;;;4187718;28;20501;-73
2022/10/07 07:11:40;;;;;;;9.33;5.03;;;7.30;99.90;;;;;;4182614;28;20448;-73
2022/10/07 07:13:42;;;;;;;8.93;4.87;;;7.40;99.90;;;;;;4183074;28;20483;-74
2022/10/07 07:15:53;;;;;;;9.57;4.93;;;7.40;99.90;;;;;;4185618;28;20546;-73
2022/10/07 07:17:55;;;;;;;10.10;5.43;;;7.40;99.90;;;;;;4186840;28;20462;-73
2022/10/07 07:19:57;;;;;;;8.57;4.57;;;7.50;99.90;;;;;;4184485;28;20478;-74
2022/10/07 07:21:59;;;;;;;8.97;4.90;;;7.40;99.90;;;;;;4187159;28;20486;-73
2022/10/07 07:24:02;;;;;;;7.67;4.43;;;7.50;99.90;;;;;;4184793;28;20467;-73
2022/10/07 07:26:03;;;;;;;9.90;4.63;;;7.50;99.90;;;;;;4184022;28;20567;-73
2022/10/07 07:28:08;;;;;;;9.10;5.17;;;7.50;99.90;;;;;;4188351;28;20526;-73
2022/10/07 07:30:12;;;;;;;12.93;5.67;;;7.60;99.90;;;;;;4184443;28;20517;-72
2022/10/07 07:32:13;;;;;;;8.57;4.80;;;7.60;99.90;;;;;;4184196;28;20473;-73
2022/10/07 07:34:16;;;;;;;10.00;5.60;;;7.60;99.90;;;;;;4183333;28;21254;-74
2022/10/07 07:36:19;;;;;;;9.27;5.13;;;7.60;99.90;;;;;;4181176;28;20884;-73
2022/10/07 07:38:21;;;;;;;9.53;5.00;;;7.60;99.90;;;;;;4186530;28;20452;-73
2022/10/07 07:40:23;;;;;;;10.60;5.30;;;7.70;99.90;;;;;;4185445;28;20464;-73
2022/10/07 07:42:26;;;;;;;11.17;5.93;;;7.70;99.90;;;;;;4184610;28;20459;-73
2022/10/07 07:44:30;;;;;;;12.03;5.27;;;7.70;99.90;;;;;;4183821;28;20954;-73
2022/10/07 07:46:35;;;;;;;12.03;5.40;;;7.80;99.90;;;;;;4182049;28;20551;-73
2022/10/07 07:48:36;;;;;;;11.17;5.10;;;7.80;99.90;;;;;;4183609;28;20546;-73
2022/10/07 07:50:40;;;;;;;11.70;4.80;;;7.80;99.90;;;;;;4182637;28;20452;-73
2022/10/07 07:52:42;;;;;;;14.83;5.63;;;7.90;99.90;;;;;;4185967;28;20456;-73
2022/10/07 07:54:44;;;;;;;11.47;5.93;;;7.90;99.90;;;;;;4184934;28;20484;-73
2022/10/07 07:56:46;;;;;;;10.87;5.20;;;8.10;99.90;;;;;;4185757;28;20444;-73
2022/10/07 07:58:48;;;;;;;9.23;5.33;;;8.00;99.90;;;;;;4184157;28;20479;-74
2022/10/07 08:01:02;;;;;;;12.53;5.20;;;8.00;99.90;;;;;;4181866;28;20464;-74
2022/10/07 08:03:04;;;;;;;11.63;5.30;;;8.10;99.90;;;;;;4184362;28;20510;-73
2022/10/07 08:05:06;;;;;;;9.17;5.30;;;8.10;99.90;;;;;;4184728;28;20456;-73
2022/10/07 08:07:10;;;;;;;10.37;5.53;;;8.20;99.90;;;;;;4181624;28;20822;-73
2022/10/07 08:09:12;;;;;;;9.87;5.07;;;8.20;99.90;;;;;;4182566;28;20522;-73
2022/10/07 08:11:15;;;;;;;11.90;5.53;;;8.30;99.90;;;;;;4183212;28;20495;-73
2022/10/07 08:13:17;;;;;;;9.90;4.63;;;8.30;99.90;;;;;;4183475;28;20509;-73
2022/10/07 08:15:19;;;;;;;8.30;4.40;;;8.40;99.90;;;;;;4182336;28;20526;-73
2022/10/07 08:17:23;;;;;;;11.43;4.73;;;8.40;99.90;;;;;;4184186;28;20519;-72
2022/10/07 08:19:26;;;;;;;8.70;4.83;;;8.40;99.90;;;;;;4182553;28;20525;-72
2022/10/07 08:21:31;;;;;;;10.80;5.43;;;8.50;99.90;;;;;;4180694;28;20478;-72
2022/10/07 08:23:34;;;;;;;9.73;4.63;;;8.50;99.90;;;;;;4182881;28;20483;-73
2022/10/07 08:25:35;;;;;;;13.47;5.20;;;8.60;99.90;;;;;;4182326;28;20544;-73
2022/10/07 08:27:37;;;;;;;9.73;5.13;;;8.70;99.90;;;;;;4183081;28;20888;-73
2022/10/07 08:29:39;;;;;;;11.77;4.87;;;8.70;99.90;;;;;;4180594;28;20495;-72
2022/10/07 08:31:42;;;;;;;9.83;4.50;;;8.80;99.90;;;;;;4183128;28;20445;-73
2022/10/07 08:33:46;;;;;;;14.80;5.40;;;8.90;99.90;;;;;;4182905;28;20452;-73
2022/10/07 08:35:50;;;;;;;9.83;4.47;;;8.90;99.90;;;;;;4186159;28;20449;-73
2022/10/07 08:37:52;;;;;;;17.70;4.30;;;9.00;99.90;;;;;;4185015;28;20449;-72
2022/10/07 08:39:54;;;;;;;9.80;4.63;;;9.00;99.90;;;;;;4186675;28;20580;-73
2022/10/07 08:42:05;;;;;;;10.83;4.90;;;9.10;99.90;;;;;;4184612;28;20455;-75
2022/10/07 08:44:17;;;;;;;10.63;4.90;;;9.20;99.90;;;;;;4191136;28;20583;-71
2022/10/07 08:46:22;;;;;;;11.90;4.67;;;9.20;99.90;;;;;;4190879;28;20453;-74
2022/10/07 08:48:32;;;;;;;11.57;4.50;;;9.30;99.90;;;;;;4191163;28;20487;-74
2022/10/07 08:50:45;;;;;;;12.13;4.37;;;9.40;99.90;;;;;;4196180;28;20226;-74
2022/10/07 08:52:50;;;;;;;9.80;4.10;;;9.50;99.90;;;;;;4190826;28;20229;-74
2022/10/07 08:54:52;;;;;;;7.83;3.63;;;9.60;99.90;;;;;;4185320;28;20207;-73
2022/10/07 08:56:58;;;;;;;7.10;3.97;;;9.70;99.90;;;;;;4188546;28;20317;-74
2022/10/07 08:59:19;;;;;;;6.93;3.83;;;9.80;99.90;;;;;;4186640;28;20310;-74
2022/10/07 09:01:32;;;;;;;9.60;3.83;;;9.90;99.90;;;;;;4183514;28;20210;-73
2022/10/07 09:03:42;;;;;;;8.80;3.40;;;10.00;99.90;;;;;;4184584;28;20203;-73
2022/10/07 09:05:48;;;;;;;7.57;3.60;;;10.00;99.90;;;;;;4183737;28;20661;-72
2022/10/07 09:07:53;;;;;;;9.87;3.90;;;10.10;99.90;;;;;;4176816;28;20265;-73
2022/10/07 09:10:00;;;;;;;8.47;3.53;;;10.20;99.90;;;;;;4178470;28;20237;-73
2022/10/07 09:12:05;;;;;;;9.60;3.73;;;10.30;99.90;;;;;;4181025;28;21586;-74
2022/10/07 09:14:18;;;;;;;7.03;3.30;;;10.40;99.90;;;;;;4184786;28;20206;-73
2022/10/07 09:16:26;;;;;;;9.23;3.50;;;10.50;99.90;;;;;;4188395;28;20578;-74
2022/10/07 09:18:33;;;;;;;13.10;3.87;;;10.50;99.90;;;;;;4183188;28;20219;-71
2022/10/07 09:20:44;;;;;;;10.87;3.60;;;10.60;99.90;;;;;;4180785;28;20217;-74
2022/10/07 09:22:52;;;;;;;8.07;3.10;;;10.70;99.90;;;;;;4186800;28;20231;-74
2022/10/07 09:25:02;;;;;;;6.07;3.10;;;10.80;99.90;;;;;;4182679;28;20283;-72
2022/10/07 09:27:12;;;;;;;5.83;3.27;;;10.90;99.90;;;;;;4182301;28;20579;-72
2022/10/07 09:29:14;;;;;;;6.23;3.07;;;10.90;99.90;;;;;;4178609;28;20246;-71
2022/10/07 09:31:16;;;;;;;9.47;3.60;;;10.90;99.90;;;;;;4186653;28;20673;-72
2022/10/07 09:33:21;;;;;;;8.47;3.30;;;11.00;99.90;;;;;;4182969;28;20225;-72
2022/10/07 09:35:25;;;;;;;7.63;3.33;;;11.10;99.90;;;;;;4184675;28;20635;-72
2022/10/07 09:37:27;;;;;;;7.90;3.43;;;11.20;99.90;;;;;;4187151;28;20469;-72
2022/10/07 09:39:30;;;;;;;7.93;3.40;;;11.30;99.90;;;;;;4182671;28;20236;-72
2022/10/07 09:41:37;;;;;;;8.10;3.30;;;11.40;99.90;;;;;;4186284;28;20212;-73
2022/10/07 09:43:51;;;;;;;5.97;3.30;;;11.40;99.90;;;;;;4187520;28;20594;-75
2022/10/07 09:45:53;;;;;;;11.50;3.20;;;11.50;99.90;;;;;;4186614;28;20205;-72
2022/10/07 09:47:57;;;;;;;8.70;3.50;;;11.60;99.90;;;;;;4185320;28;20287;-72
2022/10/07 09:49:59;;;;;;;6.00;3.10;;;11.70;99.90;;;;;;4187100;28;20237;-73
2022/10/07 09:52:03;;;;;;;6.67;2.87;;;11.70;99.90;;;;;;4184017;28;20232;-73
2022/10/07 09:54:17;;;;;;;7.80;3.07;;;11.80;99.90;;;;;;4185230;28;20232;-72
2022/10/07 09:56:34;;;;;;;11.20;3.60;;;11.90;99.90;;;;;;4185651;28;20265;-71
2022/10/07 09:58:36;;;;;;;8.13;3.33;;;12.00;99.90;;;;;;4188122;28;20205;-72
2022/10/07 10:00:43;;;;;;;7.00;2.93;;;12.10;99.90;;;;;;4188058;28;20216;-72
2022/10/07 10:02:48;;;;;;;9.40;3.30;;;12.20;99.90;;;;;;4186751;28;20206;-73
2022/10/07 10:04:52;;;;;;;6.53;2.73;;;12.30;99.90;;;;;;4181098;28;20206;-73
2022/10/07 10:07:03;;;;;;;7.33;2.90;;;12.40;99.90;;;;;;4187650;28;20209;-73
2022/10/07 10:09:10;;;;;;;7.00;2.60;;;12.50;99.90;;;;;;4183272;28;20217;-73
2022/10/07 10:11:27;;;;;;;6.17;2.90;;;12.50;99.90;;;;;;4186655;28;20202;-74
2022/10/07 10:13:32;;;;;;;5.97;2.53;;;12.60;99.90;;;;;;4187115;28;20617;-73
2022/10/07 10:15:42;;;;;;;10.60;2.90;;;12.70;99.90;;;;;;4185594;28;20295;-72
2022/10/07 10:17:44;;;;;;;5.40;2.47;;;12.80;99.90;;;;;;4185122;28;20292;-72
2022/10/07 10:19:46;;;;;;;7.77;2.50;;;12.90;99.90;;;;;;4187172;28;20242;-73
2022/10/07 10:21:51;;;;;;;6.73;2.10;;;13.00;99.90;;;;;;4186405;28;20214;-73
2022/10/07 10:23:55;;;;;;;5.97;2.60;;;13.10;99.90;;;;;;4187340;28;20199;-71
2022/10/07 10:28:41;;;;;;;5.70;2.40;;;13.30;99.90;;;;;;4182393;28;20240;-73
2022/10/07 10:30:54;;;;;;;5.37;1.90;;;13.50;99.90;;;;;;4185281;28;20977;-72
2022/10/07 10:33:19;;;;;;;6.37;2.33;;;13.60;99.90;;;;;;4187243;28;20198;-73
2022/10/07 10:35:25;;;;;;;7.87;1.77;;;13.70;99.90;;;;;;4184125;28;20693;-73
2022/10/07 10:37:42;;;;;;;5.47;1.60;;;13.80;99.90;;;;;;4185069;28;20660;-73
2022/10/07 10:39:56;;;;;;;4.20;1.73;;;14.00;99.90;;;;;;4185469;28;20971;-73
2022/10/07 10:42:04;;;;;;;5.30;1.87;;;14.10;99.90;;;;;;4181690;28;20719;-72
2022/10/07 10:44:36;;;;;;;4.10;1.60;;;14.20;99.90;;;;;;4186967;28;20205;-73
2022/10/07 10:46:48;;;;;;;5.07;1.77;;;14.40;99.90;;;;;;4183469;28;20207;-73
2022/10/07 10:48:55;;;;;;;5.13;2.00;;;14.50;99.90;;;;;;4185634;28;21047;-75
2022/10/07 10:51:07;;;;;;;6.23;1.90;;;14.70;99.90;;;;;;4182419;28;20218;-73
2022/10/07 10:53:23;;;;;;;4.13;1.60;;;14.80;99.90;;;;;;4187793;28;20897;-72
2022/10/07 10:55:42;;;;;;;2.83;1.60;;;14.90;99.90;;;;;;4185361;28;20664;-72
2022/10/07 10:57:55;;;;;;;11.80;1.63;;;15.00;99.90;;;;;;4186195;28;20201;-73
2022/10/07 11:00:05;;;;;;;7.13;2.10;;;15.20;99.90;;;;;;4184726;28;20960;-72
2022/10/07 11:02:39;;;;;;;2.67;1.30;;;15.40;99.90;;;;;;4184379;28;20215;-72
2022/10/07 11:04:46;;;;;;;3.87;1.47;;;15.60;99.90;;;;;;4179186;28;20205;-72